sim
Sign-in with your pilot id or email,
or register
Callsign
Passwort

Schedule Details

Flight Number: OEO4682
Departure: Hannover Langenhagen Airport (EDDV) at 12:35
Arrival: Paris Charles de Gaulle Airport (LFPG) at 14:05

Weather Information
Getting current METAR information for EDDV 191250Z 12010KT 080V190 9999 FEW060TCU 24/08 Q1004 NOSIG
Getting current METAR information for LFPG 191300Z 04006KT 3500 -TSRA FEW016CB BKN084 16/12 Q1007 TEMPO 2500 TSRA SCT015CB

Schedule Frequency

Route Map